createdAt,value
2022-08-17T00:00:34.543Z,72.24
2022-08-17T00:03:20.186Z,72.08
2022-08-17T00:05:58.724Z,71.91
2022-08-17T00:08:31.698Z,71.56
2022-08-17T00:11:03.620Z,71.90
2022-08-17T00:13:33.678Z,71.63
2022-08-17T00:16:07.409Z,71.71
2022-08-17T00:19:00.898Z,71.64
2022-08-17T00:21:25.443Z,71.68
2022-08-17T00:23:54.192Z,71.81
2022-08-17T00:26:43.144Z,71.51
2022-08-17T00:29:19.964Z,71.72
2022-08-17T00:31:48.793Z,71.77
2022-08-17T00:34:17.366Z,71.61
2022-08-17T00:36:45.169Z,72.21
2022-08-17T00:39:12.897Z,72.00
2022-08-17T00:41:42.497Z,72.27
2022-08-17T00:44:12.673Z,72.13
2022-08-17T00:46:43.050Z,72.29
2022-08-17T00:49:12.993Z,71.38
2022-08-17T00:52:03.761Z,71.60
2022-08-17T00:54:42.651Z,71.31
2022-08-17T00:57:23.885Z,71.07
2022-08-17T01:00:02.222Z,70.84
2022-08-17T01:02:42.310Z,71.12
2022-08-17T01:05:20.604Z,70.44
2022-08-17T01:07:53.787Z,71.32
2022-08-17T01:11:00.084Z,70.99
2022-08-17T01:13:24.092Z,70.55
2022-08-17T01:16:02.628Z,71.39
2022-08-17T01:18:32.381Z,71.33
2022-08-17T01:21:08.267Z,71.46
2022-08-17T01:23:36.958Z,71.27
2022-08-17T01:26:06.570Z,70.93
2022-08-17T01:28:53.394Z,71.17
2022-08-17T01:31:28.482Z,71.01
2022-08-17T01:33:58.501Z,70.96
2022-08-17T01:36:28.661Z,70.93
2022-08-17T01:38:57.242Z,70.00
2022-08-17T01:41:25.334Z,70.93
2022-08-17T01:43:57.553Z,70.40
2022-08-17T01:46:29.971Z,70.79
2022-08-17T01:48:59.062Z,70.15
2022-08-17T01:51:33.206Z,69.78
2022-08-17T01:54:09.021Z,69.91
2022-08-17T01:56:41.444Z,69.86
2022-08-17T01:59:12.107Z,70.08
2022-08-17T02:01:40.295Z,69.67
2022-08-17T02:04:09.104Z,69.91
2022-08-17T02:06:44.968Z,69.47
2022-08-17T02:09:16.717Z,70.13
2022-08-17T02:11:46.150Z,69.74
2022-08-17T02:14:15.164Z,69.99
2022-08-17T02:16:43.647Z,69.78
2022-08-17T02:19:16.082Z,69.66
2022-08-17T02:21:47.053Z,69.58
2022-08-17T02:25:00.888Z,69.50
2022-08-17T02:27:08.831Z,69.06
2022-08-17T02:29:40.901Z,69.35
2022-08-17T02:32:30.395Z,69.04
2022-08-17T02:35:04.025Z,68.91
2022-08-17T02:37:35.298Z,68.90
2022-08-17T02:40:05.008Z,69.56
2022-08-17T02:42:39.223Z,69.80
2022-08-17T02:45:11.901Z,69.86
2022-08-17T02:47:42.936Z,69.43
2022-08-17T02:50:12.792Z,69.44
2022-08-17T02:52:44.162Z,68.89
2022-08-17T02:55:17.198Z,69.13
2022-08-17T02:57:45.517Z,67.74
2022-08-17T03:00:19.417Z,67.52
2022-08-17T03:02:47.647Z,66.80
2022-08-17T03:05:18.150Z,67.94
2022-08-17T03:07:45.698Z,66.68
2022-08-17T03:10:14.687Z,65.60
2022-08-17T03:12:43.633Z,65.76
2022-08-17T03:15:21.436Z,65.09
2022-08-17T03:17:50.077Z,64.37
2022-08-17T03:20:18.925Z,64.55
2022-08-17T03:22:53.549Z,64.33
2022-08-17T03:25:29.494Z,65.37
2022-08-17T03:27:58.254Z,64.35
2022-08-17T03:30:27.313Z,64.47
2022-08-17T03:32:57.630Z,64.18
2022-08-17T03:35:28.337Z,64.01
2022-08-17T03:38:00.945Z,64.49
2022-08-17T03:40:34.650Z,64.55
2022-08-17T03:43:23.083Z,64.23
2022-08-17T03:46:10.775Z,64.43
2022-08-17T03:49:15.804Z,63.75
2022-08-17T03:52:02.574Z,64.56
2022-08-17T03:54:49.848Z,63.79
2022-08-17T03:57:21.880Z,63.70
2022-08-17T03:59:49.946Z,63.30
2022-08-17T04:02:32.598Z,63.78
2022-08-17T04:05:01.247Z,64.32
2022-08-17T04:07:31.238Z,63.66
2022-08-17T04:10:00.119Z,63.63
2022-08-17T04:12:32.117Z,63.72
2022-08-17T04:15:01.739Z,63.51
2022-08-17T04:17:30.437Z,63.91
2022-08-17T04:20:01.690Z,63.37
2022-08-17T04:22:34.069Z,63.74
2022-08-17T04:25:17.920Z,63.54
2022-08-17T04:27:46.191Z,63.71
2022-08-17T04:30:14.298Z,63.49
2022-08-17T04:33:06.482Z,63.70
2022-08-17T04:35:50.478Z,63.84
2022-08-17T04:38:21.207Z,64.07
2022-08-17T04:41:08.305Z,64.61
2022-08-17T04:43:39.666Z,64.43
2022-08-17T04:46:13.716Z,64.55
2022-08-17T04:48:47.991Z,64.58
2022-08-17T04:51:33.055Z,64.85
2022-08-17T04:54:04.260Z,64.47
2022-08-17T04:56:33.463Z,64.78
2022-08-17T04:59:06.541Z,64.71
2022-08-17T05:01:36.703Z,64.54
2022-08-17T05:04:31.972Z,64.31
2022-08-17T05:06:56.738Z,64.51
2022-08-17T05:09:24.804Z,64.15
2022-08-17T05:11:52.386Z,64.42
2022-08-17T05:14:33.799Z,64.14
2022-08-17T05:17:07.443Z,64.33
2022-08-17T05:19:39.494Z,64.29
2022-08-17T05:22:07.982Z,64.21
2022-08-17T05:24:42.868Z,64.52
2022-08-17T05:27:18.960Z,64.95
2022-08-17T05:29:46.886Z,64.74
2022-08-17T05:32:39.480Z,64.72
2022-08-17T05:35:03.566Z,64.75
2022-08-17T05:37:31.691Z,64.49
2022-08-17T05:39:59.650Z,64.29
2022-08-17T05:42:27.495Z,64.48
2022-08-17T05:44:58.362Z,64.55
2022-08-17T05:47:28.066Z,64.53
2022-08-17T05:49:55.884Z,64.53
2022-08-17T05:53:02.978Z,64.30
2022-08-17T05:55:47.397Z,64.68
2022-08-17T05:58:27.139Z,64.61
2022-08-17T06:01:14.104Z,64.31
2022-08-17T06:04:17.312Z,64.60
2022-08-17T06:06:59.246Z,64.25
2022-08-17T06:09:40.728Z,64.14
2022-08-17T06:12:08.294Z,64.00
2022-08-17T06:15:16.908Z,64.16
2022-08-17T06:17:45.510Z,63.92
2022-08-17T06:20:16.345Z,63.88
2022-08-17T06:22:54.495Z,63.92
2022-08-17T06:25:44.731Z,63.75
2022-08-17T06:28:20.002Z,63.69
2022-08-17T06:30:58.659Z,63.53
2022-08-17T06:33:39.877Z,63.59
2022-08-17T06:36:40.811Z,63.00
2022-08-17T06:39:39.709Z,62.67
2022-08-17T06:42:54.070Z,63.14
2022-08-17T06:45:23.262Z,62.82
2022-08-17T06:48:05.521Z,62.88
2022-08-17T06:50:40.409Z,62.84
2022-08-17T06:53:33.039Z,62.23
2022-08-17T06:56:09.832Z,62.42
2022-08-17T06:58:40.241Z,62.23
2022-08-17T07:01:15.745Z,61.91
2022-08-17T07:03:58.673Z,61.72
2022-08-17T07:07:02.279Z,62.08
2022-08-17T07:09:36.816Z,61.48
2022-08-17T07:12:25.520Z,61.41
2022-08-17T07:15:17.100Z,61.20
2022-08-17T07:17:48.403Z,60.84
2022-08-17T07:20:23.298Z,61.02
2022-08-17T07:23:09.186Z,60.36
2022-08-17T07:25:37.447Z,59.49
2022-08-17T07:28:08.218Z,59.21
2022-08-17T07:30:45.840Z,59.57
2022-08-17T07:33:18.446Z,59.43
2022-08-17T07:35:48.811Z,60.11
2022-08-17T07:38:26.735Z,59.42
2022-08-17T07:41:05.716Z,59.13
2022-08-17T07:43:42.179Z,59.50
2022-08-17T07:46:51.226Z,58.86
2022-08-17T07:49:32.835Z,58.11
2022-08-17T07:52:48.247Z,58.45
2022-08-17T07:54:56.766Z,57.76
2022-08-17T07:57:36.522Z,57.86
2022-08-17T08:00:23.935Z,57.73
2022-08-17T08:03:26.128Z,58.10
2022-08-17T08:06:01.661Z,57.77
2022-08-17T08:08:45.326Z,57.67
2022-08-17T08:11:15.842Z,58.44
2022-08-17T08:13:45.940Z,58.76
2022-08-17T08:16:24.735Z,58.58
2022-08-17T08:18:57.150Z,57.44
2022-08-17T08:21:42.075Z,57.83
2022-08-17T08:24:18.697Z,58.40
2022-08-17T08:27:07.629Z,58.09
2022-08-17T08:29:46.926Z,58.63
2022-08-17T08:32:26.456Z,57.45
2022-08-17T08:35:09.533Z,57.98
2022-08-17T08:37:50.546Z,58.32
2022-08-17T08:40:30.161Z,57.94
2022-08-17T08:43:22.880Z,58.78
2022-08-17T08:46:08.082Z,58.68
2022-08-17T08:49:10.362Z,59.15
2022-08-17T08:52:01.020Z,60.37
2022-08-17T08:54:55.077Z,60.63
2022-08-17T08:57:34.054Z,60.76
2022-08-17T09:04:12.039Z,60.58
2022-08-17T09:07:04.840Z,60.81
2022-08-17T09:09:59.454Z,60.87
2022-08-17T09:12:56.039Z,60.88
2022-08-17T09:15:39.305Z,60.87
2022-08-17T09:19:00.178Z,60.26
2022-08-17T09:21:04.581Z,60.42
2022-08-17T09:23:45.573Z,60.11
2022-08-17T09:26:38.066Z,60.10
2022-08-17T09:29:13.574Z,60.63
2022-08-17T09:31:57.468Z,60.41
2022-08-17T09:34:40.372Z,60.69
2022-08-17T09:37:39.682Z,60.44
2022-08-17T09:40:19.372Z,60.67
2022-08-17T09:43:09.882Z,60.31
2022-08-17T09:45:50.323Z,60.14
2022-08-17T09:48:52.915Z,60.55
2022-08-17T09:51:42.369Z,60.24
2022-08-17T09:54:42.011Z,60.28
2022-08-17T09:57:32.601Z,60.57
2022-08-17T10:00:32.707Z,60.24
2022-08-17T10:03:18.718Z,60.74
2022-08-17T10:06:09.061Z,60.71
2022-08-17T10:09:20.221Z,60.75
2022-08-17T10:12:17.897Z,60.67
2022-08-17T10:14:46.353Z,59.91
2022-08-17T10:17:41.113Z,59.29
2022-08-17T10:20:23.845Z,59.61
2022-08-17T10:23:19.749Z,59.12
2022-08-17T10:26:14.971Z,59.01
2022-08-17T10:28:59.932Z,58.80
2022-08-17T10:31:41.236Z,58.49
2022-08-17T10:34:24.854Z,58.40
2022-08-17T10:37:11.585Z,58.24
2022-08-17T10:40:04.926Z,58.46
2022-08-17T10:42:44.176Z,57.73
2022-08-17T10:45:26.653Z,56.31
2022-08-17T10:48:05.848Z,57.19
2022-08-17T10:50:58.039Z,56.21
2022-08-17T10:53:41.066Z,55.81
2022-08-17T10:56:15.348Z,55.80
2022-08-17T10:58:55.318Z,55.42
2022-08-17T11:02:01.189Z,55.33
2022-08-17T11:04:59.515Z,54.37
2022-08-17T11:07:55.243Z,53.00
2022-08-17T11:10:42.599Z,52.89
2022-08-17T11:13:38.047Z,52.69
2022-08-17T11:16:47.024Z,51.68
2022-08-17T11:19:41.781Z,51.45
2022-08-17T11:22:34.780Z,50.42
2022-08-17T11:25:45.654Z,49.98
2022-08-17T11:28:21.003Z,49.21
2022-08-17T11:31:10.694Z,48.68
2022-08-17T11:33:45.371Z,47.89
2022-08-17T11:37:02.357Z,48.23
2022-08-17T11:39:33.756Z,48.57
2022-08-17T11:42:01.377Z,48.39
2022-08-17T11:44:51.262Z,48.65
2022-08-17T11:48:27.256Z,47.91
2022-08-17T11:51:36.792Z,47.52
2022-08-17T11:54:33.637Z,47.79
2022-08-17T11:57:30.051Z,47.81
2022-08-17T12:00:01.200Z,47.58
2022-08-17T12:02:48.259Z,47.32
2022-08-17T12:05:22.322Z,47.12
2022-08-17T12:08:12.108Z,46.85
2022-08-17T12:10:56.986Z,47.60
2022-08-17T12:13:30.461Z,47.46
2022-08-17T12:16:08.760Z,47.35
2022-08-17T12:18:40.081Z,47.84
2022-08-17T12:22:01.536Z,47.74
2022-08-17T12:24:55.796Z,47.23
2022-08-17T12:27:47.626Z,47.16
2022-08-17T12:30:23.933Z,47.52
2022-08-17T12:32:52.190Z,47.68
2022-08-17T12:35:25.910Z,47.08
2022-08-17T12:37:56.041Z,46.52
2022-08-17T12:40:28.433Z,46.69
2022-08-17T12:43:03.852Z,46.65
2022-08-17T12:45:34.585Z,47.01
2022-08-17T12:48:06.841Z,46.47
2022-08-17T12:50:46.776Z,46.44
2022-08-17T12:53:24.409Z,46.00
2022-08-17T12:55:52.569Z,46.91
2022-08-17T12:58:36.083Z,47.18
2022-08-17T13:01:09.581Z,47.86
2022-08-17T13:03:41.362Z,47.35
2022-08-17T13:06:18.151Z,46.81
2022-08-17T13:08:48.559Z,46.60
2022-08-17T13:11:16.938Z,46.52
2022-08-17T13:13:52.456Z,46.79
2022-08-17T13:16:21.874Z,46.87
2022-08-17T13:19:05.225Z,46.89
2022-08-17T13:21:34.103Z,46.30
2022-08-17T13:24:01.483Z,46.47
2022-08-17T13:26:33.745Z,46.81
2022-08-17T13:29:08.135Z,46.68
2022-08-17T13:31:51.174Z,45.91
2022-08-17T13:35:11.954Z,47.78
2022-08-17T13:37:37.966Z,48.01
2022-08-17T13:40:08.651Z,48.93
2022-08-17T13:42:51.583Z,49.15
2022-08-17T13:45:35.176Z,49.51
2022-08-17T13:48:16.171Z,49.08
2022-08-17T13:50:57.784Z,48.87
2022-08-17T13:53:33.061Z,49.02
2022-08-17T13:56:37.605Z,48.88
2022-08-17T13:59:17.493Z,48.07
2022-08-17T14:02:10.699Z,48.28
2022-08-17T14:04:43.719Z,48.44
2022-08-17T14:07:15.695Z,48.60
2022-08-17T14:10:26.823Z,48.92
2022-08-17T14:12:57.908Z,48.96
2022-08-17T14:15:55.602Z,49.35
2022-08-17T14:18:31.231Z,50.11
2022-08-17T14:21:10.060Z,50.22
2022-08-17T14:23:37.903Z,50.60
2022-08-17T14:26:05.716Z,50.89
2022-08-17T14:28:33.972Z,51.28
2022-08-17T14:31:06.809Z,51.46
2022-08-17T14:33:35.535Z,51.88
2022-08-17T14:36:03.697Z,51.78
2022-08-17T14:38:31.114Z,52.00
2022-08-17T14:40:59.711Z,52.29
2022-08-17T14:43:29.998Z,52.28
2022-08-17T14:45:57.284Z,52.32
2022-08-17T14:48:24.392Z,52.78
2022-08-17T14:50:54.724Z,52.75
2022-08-17T14:53:22.483Z,52.61
2022-08-17T14:55:51.514Z,52.49
2022-08-17T14:58:19.673Z,52.56
2022-08-17T15:00:51.229Z,52.56
2022-08-17T15:03:23.046Z,52.47
2022-08-17T15:05:50.342Z,53.37
2022-08-17T15:08:18.247Z,53.04
2022-08-17T15:10:54.527Z,53.23
2022-08-17T15:13:24.373Z,54.38
2022-08-17T15:15:54.711Z,54.58
2022-08-17T15:18:22.926Z,54.67
2022-08-17T15:20:50.703Z,54.57
2022-08-17T15:23:23.153Z,54.23
2022-08-17T15:25:52.954Z,54.17
2022-08-17T15:28:28.705Z,54.42
2022-08-17T15:30:56.312Z,54.26
2022-08-17T15:33:29.936Z,54.54
2022-08-17T15:36:03.503Z,54.15
2022-08-17T15:38:40.949Z,54.30
2022-08-17T15:41:15.520Z,54.64
2022-08-17T15:43:46.229Z,54.56
2022-08-17T15:46:20.055Z,54.47
2022-08-17T15:48:52.063Z,54.54
2022-08-17T15:51:33.240Z,54.75
2022-08-17T15:54:19.267Z,54.51
2022-08-17T15:56:51.144Z,55.20
2022-08-17T15:59:19.717Z,55.88
2022-08-17T16:03:13.586Z,55.93
2022-08-17T16:04:41.447Z,56.65
2022-08-17T16:07:11.702Z,56.36
2022-08-17T16:09:39.168Z,56.11
2022-08-17T16:12:18.293Z,56.15
2022-08-17T16:14:52.041Z,56.25
2022-08-17T16:17:38.953Z,56.97
2022-08-17T16:20:20.170Z,58.16
2022-08-17T16:22:51.977Z,58.72
2022-08-17T16:25:50.376Z,60.13
2022-08-17T16:28:19.112Z,60.13
2022-08-17T16:30:47.260Z,60.19
2022-08-17T16:33:15.595Z,60.36
2022-08-17T16:35:43.337Z,60.93
2022-08-17T16:38:17.922Z,61.11
2022-08-17T16:40:45.713Z,61.35
2022-08-17T16:43:13.081Z,60.85
2022-08-17T16:45:40.959Z,60.74
2022-08-17T16:48:09.536Z,61.09
2022-08-17T16:50:37.710Z,61.23
2022-08-17T16:53:11.308Z,61.29
2022-08-17T16:55:39.093Z,59.76
2022-08-17T16:58:09.214Z,59.23
2022-08-17T17:00:37.812Z,56.05
2022-08-17T17:03:22.645Z,53.53
2022-08-17T17:06:07.721Z,48.14
2022-08-17T17:08:47.041Z,48.51
2022-08-17T17:11:26.991Z,46.29
2022-08-17T17:14:00.273Z,46.16
2022-08-17T17:16:52.270Z,46.73
2022-08-17T17:19:34.547Z,46.70
2022-08-17T17:22:15.574Z,47.31
2022-08-17T17:25:06.322Z,47.95
2022-08-17T17:27:44.177Z,47.77
2022-08-17T17:30:26.407Z,47.66
2022-08-17T17:33:02.115Z,48.14
2022-08-17T17:36:01.330Z,48.14
2022-08-17T17:38:44.970Z,48.98
2022-08-17T17:41:26.153Z,49.88
2022-08-17T17:44:05.933Z,49.32
2022-08-17T17:46:40.556Z,49.41
2022-08-17T17:49:11.613Z,49.48
2022-08-17T17:52:22.175Z,49.63
2022-08-17T17:54:53.898Z,49.56
2022-08-17T17:58:03.650Z,49.59
2022-08-17T18:01:16.445Z,50.49
2022-08-17T18:03:55.467Z,50.44
2022-08-17T18:06:51.813Z,51.06
2022-08-17T18:09:51.748Z,52.15
2022-08-17T18:12:24.817Z,52.26
2022-08-17T18:15:12.444Z,52.92
2022-08-17T18:18:22.924Z,53.34
2022-08-17T18:20:56.291Z,53.56
2022-08-17T18:23:33.540Z,53.90
2022-08-17T18:26:05.195Z,54.30
2022-08-17T18:28:40.986Z,53.84
2022-08-17T18:31:11.983Z,53.76
2022-08-17T18:33:45.973Z,53.78
2022-08-17T18:36:34.981Z,55.14
2022-08-17T18:39:31.672Z,55.45
2022-08-17T18:42:26.060Z,55.63
2022-08-17T18:44:57.154Z,56.20
2022-08-17T18:47:28.618Z,55.81
2022-08-17T18:51:12.424Z,55.82
2022-08-17T18:53:46.059Z,55.81
2022-08-17T18:56:32.505Z,56.31
2022-08-17T18:59:21.965Z,56.04
2022-08-17T19:02:45.049Z,56.79
2022-08-17T19:05:39.246Z,57.32
2022-08-17T19:08:21.983Z,57.70
2022-08-17T19:11:02.239Z,57.51
2022-08-17T19:13:44.659Z,57.74
2022-08-17T19:16:38.319Z,58.23
2022-08-17T19:19:24.190Z,58.39
2022-08-17T19:22:03.380Z,59.05
2022-08-17T19:24:33.980Z,58.66
2022-08-17T19:27:57.363Z,59.94
2022-08-17T19:30:26.307Z,59.99
2022-08-17T19:32:56.266Z,60.07
2022-08-17T19:35:32.664Z,59.94
2022-08-17T19:38:15.227Z,60.05
2022-08-17T19:41:10.320Z,59.98
2022-08-17T19:43:58.977Z,59.72
2022-08-17T19:46:49.944Z,59.35
2022-08-17T19:49:32.930Z,60.04
2022-08-17T19:52:10.747Z,60.44
2022-08-17T19:55:05.553Z,60.15
2022-08-17T19:58:12.072Z,60.42
2022-08-17T20:00:52.790Z,60.57
2022-08-17T20:03:35.395Z,60.19
2022-08-17T20:06:12.899Z,59.44
2022-08-17T20:09:15.156Z,59.61
2022-08-17T20:11:52.787Z,59.39
2022-08-17T20:14:24.694Z,59.67
2022-08-17T20:16:52.924Z,59.78
2022-08-17T20:19:25.510Z,60.57
2022-08-17T20:22:00.258Z,61.75
2022-08-17T20:24:37.668Z,62.38
2022-08-17T20:27:31.365Z,63.87
2022-08-17T20:30:12.178Z,64.07
2022-08-17T20:32:58.203Z,64.27
2022-08-17T20:35:39.996Z,63.58
2022-08-17T20:38:48.081Z,63.38
2022-08-17T20:41:23.021Z,62.73
2022-08-17T20:44:08.509Z,62.64
2022-08-17T20:46:39.156Z,60.53
2022-08-17T20:49:26.258Z,61.50
2022-08-17T20:52:10.620Z,61.06
2022-08-17T20:54:49.508Z,60.81
2022-08-17T20:57:35.560Z,61.14
2022-08-17T21:00:33.335Z,61.56
2022-08-17T21:03:23.262Z,61.40
2022-08-17T21:06:16.829Z,61.89
2022-08-17T21:08:55.328Z,62.31
2022-08-17T21:11:57.320Z,62.42
2022-08-17T21:14:33.004Z,62.41
2022-08-17T21:17:33.884Z,61.90
2022-08-17T21:20:27.339Z,61.64
2022-08-17T21:23:39.231Z,61.38
2022-08-17T21:26:30.216Z,60.22
2022-08-17T21:29:31.967Z,61.39
2022-08-17T21:32:03.422Z,62.41
2022-08-17T21:34:44.271Z,62.30
2022-08-17T21:37:22.175Z,62.64
2022-08-17T21:40:11.114Z,62.53
2022-08-17T21:42:51.392Z,62.51
2022-08-17T21:45:35.981Z,62.95
2022-08-17T21:48:13.395Z,63.35
2022-08-17T21:50:44.539Z,63.43
2022-08-17T21:54:13.634Z,63.22
2022-08-17T21:56:46.785Z,63.09
2022-08-17T21:59:20.443Z,63.40
2022-08-17T22:01:58.880Z,63.14
2022-08-17T22:04:33.590Z,63.78
2022-08-17T22:07:04.630Z,64.23
2022-08-17T22:09:44.752Z,64.16
2022-08-17T22:12:27.485Z,64.14
2022-08-17T22:14:58.444Z,64.86
2022-08-17T22:17:50.018Z,65.47
2022-08-17T22:20:38.687Z,64.86
2022-08-17T22:23:32.643Z,65.09
2022-08-17T22:26:04.403Z,65.56
2022-08-17T22:28:49.307Z,65.51
2022-08-17T22:31:24.214Z,65.36
2022-08-17T22:34:03.932Z,65.07
2022-08-17T22:36:36.806Z,64.97
2022-08-17T22:39:11.898Z,63.34
2022-08-17T22:42:03.886Z,63.20
2022-08-17T22:44:38.373Z,62.35
2022-08-17T22:47:24.451Z,62.16
2022-08-17T22:50:02.831Z,61.57
2022-08-17T22:53:02.903Z,62.53
2022-08-17T22:55:53.297Z,62.91
2022-08-17T22:58:43.543Z,64.64
2022-08-17T23:01:33.580Z,66.33
2022-08-17T23:04:07.274Z,65.86
2022-08-17T23:06:42.940Z,66.44
2022-08-17T23:09:10.995Z,67.02
2022-08-17T23:11:49.795Z,66.46
2022-08-17T23:14:20.802Z,67.27
2022-08-17T23:16:53.475Z,67.92
2022-08-17T23:19:22.558Z,68.59
2022-08-17T23:21:55.866Z,68.30
2022-08-17T23:24:26.708Z,69.54
2022-08-17T23:26:59.382Z,67.47
2022-08-17T23:29:30.257Z,68.68
2022-08-17T23:32:05.227Z,67.69
2022-08-17T23:34:37.162Z,65.88
2022-08-17T23:37:10.687Z,66.18
2022-08-17T23:39:43.145Z,66.88
2022-08-17T23:42:14.451Z,69.38
2022-08-17T23:44:44.092Z,69.63
2022-08-17T23:47:11.853Z,69.76
2022-08-17T23:49:43.681Z,71.20
2022-08-17T23:52:16.425Z,70.94
2022-08-17T23:54:47.489Z,70.14
2022-08-17T23:57:19.514Z,70.69
2022-08-17T23:59:47.744Z,71.59
